Sao Sebastiao do Umbuzeiro, Brazil
Current Conditions -  °F | °C
As of 7:00 AM on Saturday 22 Nov 2014 (Local Time) from SBKG Reporting Station
Light Rain Light Rain  
Wind Chill: 68°   Ceiling: 1200
Heat Index: 68°   Visibility: 1.8mi
Dew Point: 68°   Wind: 14mph
Humidity: 100%   Direction: 130°SE
Pressure: NA   Gusts: NA
Location:  8.15°S, 37.01°W
Report Text: SBKG 221000Z 13012KT 3000 -RA BR SCT005 BKN012 BKN070 20/20 Q1015
Loading
Personal Weather Stations






























Interactive Weather Map New forecast layout! Learn more

10-Day Weather Forecast

Advertisements
Track Severe Weather on mobile